Time;durP1;ratioP1;P1;durP2;ratioP2;P2;SDS_P1;SDS_P2;PMS_P1;PMS_P2;Temp;Humidity;BMP_temperature;BMP_pressure;BME280_temperature;BME280_humidity;BME280_pressure;Samples;Min_cycle;Max_cycle;Signal;HPM_P1;HPM_P2
2022/05/16 00:00:27;;;;;;;7.07;2.50;;;;;;;;;;5055793;28;20058;-83
2022/05/16 00:02:54;;;;;;;7.55;2.90;;;;;;;;;;5038416;28;20032;-78
2022/05/16 00:05:19;;;;;;;7.05;2.50;;;;;;;;;;5057427;28;20040;-81
2022/05/16 00:07:45;;;;;;;4.57;2.30;;;;;;;;;;5062173;28;20036;-83
2022/05/16 00:10:11;;;;;;;5.85;2.13;;;;;;;;;;5048651;28;20090;-82
2022/05/16 00:12:37;;;;;;;5.28;2.60;;;;;;;;;;5064169;28;20029;-83
2022/05/16 00:15:03;;;;;;;6.47;2.63;;;;;;;;;;5066311;28;20024;-83
2022/05/16 00:17:29;;;;;;;8.43;2.30;;;;;;;;;;5047855;28;20048;-79
2022/05/16 00:19:54;;;;;;;6.97;2.50;;;;;;;;;;5063741;28;20090;-78
2022/05/16 00:22:19;;;;;;;7.68;2.45;;;;;;;;;;5051452;28;21291;-80
2022/05/16 00:24:45;;;;;;;6.15;2.45;;;;;;;;;;5064079;28;20036;-79
2022/05/16 00:27:11;;;;;;;8.43;2.53;;;;;;;;;;5044427;28;20075;-83
2022/05/16 00:29:38;;;;;;;7.63;2.50;;;;;;;;;;5060717;28;20024;-84
2022/05/16 00:32:05;;;;;;;6.53;2.58;;;;;;;;;;5062227;28;20040;-81
2022/05/16 00:34:31;;;;;;;5.40;2.15;;;;;;;;;;5042540;28;20039;-78
2022/05/16 00:36:56;;;;;;;6.60;2.42;;;;;;;;;;5045865;28;20020;-79
2022/05/16 00:39:22;;;;;;;5.00;2.40;;;;;;;;;;5047413;28;20137;-82
2022/05/16 00:41:49;;;;;;;6.63;2.63;;;;;;;;;;5048111;28;20035;-84
2022/05/16 00:44:15;;;;;;;6.80;2.60;;;;;;;;;;5042635;28;20113;-83
2022/05/16 00:46:40;;;;;;;4.90;2.58;;;;;;;;;;5048209;28;20466;-79
2022/05/16 00:49:13;;;;;;;5.25;2.55;;;;;;;;;;5060450;28;20083;-78
2022/05/16 00:51:48;;;;;;;4.85;2.72;;;;;;;;;;5058859;28;20032;-83
2022/05/16 00:54:19;;;;;;;6.20;3.00;;;;;;;;;;5044760;28;20064;-79
2022/05/16 00:56:46;;;;;;;6.70;2.55;;;;;;;;;;5042654;28;20044;-83
2022/05/16 00:59:12;;;;;;;8.52;2.60;;;;;;;;;;5044433;28;20060;-83
2022/05/16 01:07:08;;;;;;;7.88;2.53;;;;;;;;;;5061470;28;20023;-80
2022/05/16 01:09:33;;;;;;;9.27;2.92;;;;;;;;;;5046600;28;20032;-78
2022/05/16 01:11:59;;;;;;;7.38;2.83;;;;;;;;;;5062263;28;20027;-79
2022/05/16 01:14:45;;;;;;;7.40;2.80;;;;;;;;;;5049395;28;20079;-83
2022/05/16 01:17:12;;;;;;;7.45;3.25;;;;;;;;;;5061175;28;20032;-78
2022/05/16 01:19:37;;;;;;;7.68;2.65;;;;;;;;;;5045751;28;20021;-82
2022/05/16 01:22:30;;;;;;;5.20;2.70;;;;;;;;;;5055043;28;20546;-78
2022/05/16 01:24:59;;;;;;;6.93;2.73;;;;;;;;;;5049162;28;20547;-82
2022/05/16 01:27:25;;;;;;;7.82;3.00;;;;;;;;;;5069704;28;20071;-78
2022/05/16 01:29:51;;;;;;;8.40;3.00;;;;;;;;;;5071309;28;20032;-78
2022/05/16 01:32:18;;;;;;;5.57;2.33;;;;;;;;;;5046547;28;20524;-79
2022/05/16 01:34:43;;;;;;;5.70;2.70;;;;;;;;;;5064081;28;20484;-78
2022/05/16 01:37:09;;;;;;;9.02;2.95;;;;;;;;;;5050634;28;20028;-82
2022/05/16 01:39:34;;;;;;;7.18;2.67;;;;;;;;;;5049697;28;20416;-78
2022/05/16 01:42:00;;;;;;;6.40;2.90;;;;;;;;;;5048601;28;20465;-83
2022/05/16 01:44:26;;;;;;;7.00;2.65;;;;;;;;;;5057965;28;20516;-81
2022/05/16 01:46:52;;;;;;;7.38;2.88;;;;;;;;;;5036552;28;20120;-83
2022/05/16 01:49:17;;;;;;;6.95;2.70;;;;;;;;;;5039027;28;20033;-83
2022/05/16 01:51:42;;;;;;;4.63;2.85;;;;;;;;;;5041723;28;20103;-78
2022/05/16 01:54:08;;;;;;;6.93;2.75;;;;;;;;;;5025213;28;20028;-83
2022/05/16 01:56:35;;;;;;;5.57;2.80;;;;;;;;;;5025671;28;20111;-83
2022/05/16 01:59:03;;;;;;;7.97;3.00;;;;;;;;;;5027596;28;20516;-81
2022/05/16 02:01:28;;;;;;;6.80;2.75;;;;;;;;;;5029863;28;21848;-84
2022/05/16 02:03:54;;;;;;;7.63;3.15;;;;;;;;;;5044409;28;20054;-83
2022/05/16 02:06:19;;;;;;;6.95;3.17;;;;;;;;;;5030113;28;20028;-83
2022/05/16 02:08:45;;;;;;;6.82;2.88;;;;;;;;;;5023986;28;20036;-83
2022/05/16 02:11:11;;;;;;;10.27;3.80;;;;;;;;;;5023954;28;20025;-78
2022/05/16 02:13:39;;;;;;;5.40;2.97;;;;;;;;;;5037774;28;20512;-84
2022/05/16 02:16:05;;;;;;;7.03;3.38;;;;;;;;;;5049662;28;20033;-78
2022/05/16 02:18:30;;;;;;;5.80;2.70;;;;;;;;;;5026666;28;20401;-83
2022/05/16 02:24:38;;;;;;;7.28;2.90;;;;;;;;;;5029598;28;20033;-78
2022/05/16 02:26:26;;;;;;;7.25;2.72;;;;;;;;;;5047026;28;20112;-83
2022/05/16 02:28:51;;;;;;;6.45;2.72;;;;;;;;;;5028571;28;20040;-78
2022/05/16 02:31:19;;;;;;;7.55;3.00;;;;;;;;;;5043025;28;20496;-83
2022/05/16 02:33:45;;;;;;;5.38;3.20;;;;;;;;;;5045206;28;20114;-78
2022/05/16 02:36:10;;;;;;;6.35;3.08;;;;;;;;;;5027990;28;20060;-79
2022/05/16 02:38:36;;;;;;;6.80;3.53;;;;;;;;;;5044139;28;20037;-83
2022/05/16 02:41:01;;;;;;;6.97;3.30;;;;;;;;;;5031132;28;20113;-79
2022/05/16 02:43:27;;;;;;;6.88;3.30;;;;;;;;;;5026730;28;20033;-78
2022/05/16 02:45:52;;;;;;;7.95;3.38;;;;;;;;;;5040607;28;20033;-83
2022/05/16 02:48:17;;;;;;;7.53;3.30;;;;;;;;;;5028156;28;20521;-83
2022/05/16 02:50:43;;;;;;;6.55;3.00;;;;;;;;;;5029982;28;20396;-77
2022/05/16 02:53:10;;;;;;;7.15;3.33;;;;;;;;;;5041538;28;20123;-84
2022/05/16 02:55:35;;;;;;;5.85;2.92;;;;;;;;;;5030793;28;20025;-78
2022/05/16 02:58:01;;;;;;;8.73;3.33;;;;;;;;;;5031614;28;20025;-83
2022/05/16 03:00:26;;;;;;;7.90;3.53;;;;;;;;;;5040642;28;20120;-82
2022/05/16 03:02:51;;;;;;;9.00;3.30;;;;;;;;;;5045064;28;20025;-78
2022/05/16 03:05:17;;;;;;;8.98;3.60;;;;;;;;;;5033624;28;20024;-78
2022/05/16 03:07:43;;;;;;;6.30;3.58;;;;;;;;;;5034101;28;20078;-82
2022/05/16 03:10:11;;;;;;;6.60;3.70;;;;;;;;;;5032831;28;20496;-79
2022/05/16 03:12:36;;;;;;;6.97;3.13;;;;;;;;;;5031676;28;20520;-79
2022/05/16 03:15:02;;;;;;;8.23;3.35;;;;;;;;;;5045770;28;20029;-82
2022/05/16 03:17:28;;;;;;;7.53;3.35;;;;;;;;;;5043110;28;20030;-83
2022/05/16 03:19:53;;;;;;;7.30;3.22;;;;;;;;;;5042748;28;20029;-81
2022/05/16 03:22:18;;;;;;;7.03;3.17;;;;;;;;;;5045040;28;20068;-80
2022/05/16 03:24:44;;;;;;;9.10;4.15;;;;;;;;;;5028693;28;20051;-83
2022/05/16 03:27:10;;;;;;;8.32;3.85;;;;;;;;;;5045594;28;20030;-78
2022/05/16 03:29:36;;;;;;;8.82;3.90;;;;;;;;;;5046064;28;20107;-84
2022/05/16 03:32:02;;;;;;;5.72;3.60;;;;;;;;;;5032107;28;20135;-82
2022/05/16 03:34:27;;;;;;;7.78;4.18;;;;;;;;;;5034063;28;20036;-78
2022/05/16 03:36:52;;;;;;;7.95;3.63;;;;;;;;;;5045378;28;20021;-83
2022/05/16 03:42:02;;;;;;;7.35;3.92;;;;;;;;;;5040751;28;20079;-78
2022/05/16 03:44:28;;;;;;;8.23;4.20;;;;;;;;;;5026806;28;20143;-78
2022/05/16 03:46:53;;;;;;;7.35;3.90;;;;;;;;;;5046258;28;20455;-79
2022/05/16 03:49:18;;;;;;;7.72;3.70;;;;;;;;;;5042598;28;20040;-79
2022/05/16 03:51:44;;;;;;;7.18;3.65;;;;;;;;;;5062786;28;20038;-78
2022/05/16 03:54:09;;;;;;;8.70;3.97;;;;;;;;;;5059866;28;20132;-78
2022/05/16 03:56:34;;;;;;;6.22;3.70;;;;;;;;;;5045187;28;20033;-79
2022/05/16 03:59:00;;;;;;;7.53;3.65;;;;;;;;;;5062715;28;20036;-79
2022/05/16 04:01:27;;;;;;;8.57;4.10;;;;;;;;;;5046302;28;21054;-78
2022/05/16 04:03:53;;;;;;;8.45;3.42;;;;;;;;;;5047256;28;20029;-78
2022/05/16 04:06:18;;;;;;;8.02;3.83;;;;;;;;;;5068482;28;20046;-78
2022/05/16 04:08:44;;;;;;;6.38;3.55;;;;;;;;;;5065405;28;20115;-78
2022/05/16 04:11:11;;;;;;;8.75;4.03;;;;;;;;;;5058773;28;20103;-81
2022/05/16 04:13:37;;;;;;;9.18;4.28;;;;;;;;;;5048499;28;20039;-79
2022/05/16 04:16:03;;;;;;;8.88;3.92;;;;;;;;;;5053005;28;20024;-82
2022/05/16 04:18:29;;;;;;;7.97;3.80;;;;;;;;;;5044209;28;20024;-78
2022/05/16 04:20:54;;;;;;;8.68;4.00;;;;;;;;;;5048125;28;20408;-83
2022/05/16 04:23:20;;;;;;;7.93;4.07;;;;;;;;;;5066475;28;20032;-82
2022/05/16 04:25:46;;;;;;;5.95;3.97;;;;;;;;;;5052476;28;20033;-79
2022/05/16 04:28:11;;;;;;;7.32;3.90;;;;;;;;;;5060450;28;20035;-78
2022/05/16 04:30:38;;;;;;;8.70;3.50;;;;;;;;;;5061054;28;20026;-83
2022/05/16 04:33:05;;;;;;;7.38;3.80;;;;;;;;;;5051764;28;20419;-78
2022/05/16 04:35:30;;;;;;;11.75;3.97;;;;;;;;;;5045577;28;20024;-83
2022/05/16 04:37:56;;;;;;;7.43;3.65;;;;;;;;;;5046010;28;20040;-79
2022/05/16 04:40:21;;;;;;;6.63;3.70;;;;;;;;;;5062000;28;20017;-79
2022/05/16 04:42:48;;;;;;;7.43;4.13;;;;;;;;;;5044078;28;20539;-78
2022/05/16 04:45:16;;;;;;;6.80;3.95;;;;;;;;;;5034832;28;20048;-78
2022/05/16 04:47:43;;;;;;;6.72;3.70;;;;;;;;;;5039083;28;20417;-78
2022/05/16 04:50:09;;;;;;;7.70;3.42;;;;;;;;;;5024828;28;20070;-81
2022/05/16 04:52:34;;;;;;;7.35;3.80;;;;;;;;;;5027258;28;20080;-78
2022/05/16 04:55:00;;;;;;;7.80;3.92;;;;;;;;;;5019591;28;20028;-78
2022/05/16 04:57:26;;;;;;;8.23;4.00;;;;;;;;;;5010519;28;20032;-83
2022/05/16 04:59:51;;;;;;;8.75;4.15;;;;;;;;;;5023210;28;21378;-83
2022/05/16 05:02:16;;;;;;;10.52;4.68;;;;;;;;;;5032371;28;20032;-82
2022/05/16 05:04:42;;;;;;;5.75;3.53;;;;;;;;;;5040163;28;20122;-84
2022/05/16 05:07:09;;;;;;;6.78;3.97;;;;;;;;;;5045176;28;20493;-78
2022/05/16 05:14:31;;;;;;;7.03;4.05;;;;;;;;;;5032467;28;20025;-81
2022/05/16 05:15:05;;;;;;;8.05;3.88;;;;;;;;;;5041987;28;20036;-83
2022/05/16 05:17:30;;;;;;;8.48;4.57;;;;;;;;;;5047287;28;20109;-79
2022/05/16 05:19:55;;;;;;;7.78;3.95;;;;;;;;;;5032683;28;20154;-83
2022/05/16 05:22:20;;;;;;;8.80;4.28;;;;;;;;;;5031806;28;20060;-83
2022/05/16 05:24:46;;;;;;;6.82;4.35;;;;;;;;;;5025585;28;20055;-78
2022/05/16 05:27:11;;;;;;;8.75;4.63;;;;;;;;;;5029595;28;20103;-83
2022/05/16 05:29:36;;;;;;;10.43;4.95;;;;;;;;;;5028818;28;20033;-83
2022/05/16 05:32:03;;;;;;;9.35;4.40;;;;;;;;;;5047506;28;20025;-79
2022/05/16 05:34:29;;;;;;;8.32;4.47;;;;;;;;;;5031161;28;20504;-84
2022/05/16 05:36:54;;;;;;;10.60;4.55;;;;;;;;;;5041457;28;20136;-84
2022/05/16 05:39:20;;;;;;;7.60;4.60;;;;;;;;;;5032877;28;20032;-77
2022/05/16 05:41:45;;;;;;;8.80;4.53;;;;;;;;;;5025068;28;20033;-83
2022/05/16 05:44:11;;;;;;;10.10;4.85;;;;;;;;;;5038342;28;20029;-84
2022/05/16 05:46:39;;;;;;;8.70;4.85;;;;;;;;;;5058871;28;20044;-83
2022/05/16 05:49:05;;;;;;;7.57;4.78;;;;;;;;;;5058527;28;20025;-78
2022/05/16 05:51:31;;;;;;;6.93;4.60;;;;;;;;;;5059228;28;20464;-79
2022/05/16 05:53:58;;;;;;;8.38;4.60;;;;;;;;;;5056550;28;20040;-82
2022/05/16 05:56:24;;;;;;;8.50;5.30;;;;;;;;;;5036879;28;20052;-82
2022/05/16 05:58:49;;;;;;;8.35;4.63;;;;;;;;;;5038803;28;20164;-83
2022/05/16 06:01:15;;;;;;;8.63;4.68;;;;;;;;;;5055016;28;20025;-79
2022/05/16 06:03:40;;;;;;;6.85;4.43;;;;;;;;;;5045208;28;20029;-78
2022/05/16 06:06:05;;;;;;;7.20;4.50;;;;;;;;;;5038572;28;20067;-83
2022/05/16 06:08:31;;;;;;;7.78;4.10;;;;;;;;;;5040705;28;20028;-80
2022/05/16 06:10:56;;;;;;;8.93;4.25;;;;;;;;;;5064348;28;20060;-86
2022/05/16 06:13:22;;;;;;;7.15;4.38;;;;;;;;;;5047485;28;20032;-85
2022/05/16 06:15:47;;;;;;;8.40;4.13;;;;;;;;;;5058611;28;20103;-85
2022/05/16 06:18:13;;;;;;;6.25;3.97;;;;;;;;;;5061425;28;20054;-82
2022/05/16 06:20:39;;;;;;;10.20;5.10;;;;;;;;;;5043613;28;20040;-86
2022/05/16 06:23:04;;;;;;;8.20;4.00;;;;;;;;;;5045961;28;20028;-80
2022/05/16 06:25:33;;;;;;;8.85;5.22;;;;;;;;;;5062713;28;20540;-79
2022/05/16 06:28:02;;;;;;;9.35;4.20;;;;;;;;;;5050621;28;20123;-82
2022/05/16 06:30:28;;;;;;;8.27;5.03;;;;;;;;;;5067453;28;20399;-80
2022/05/16 06:32:53;;;;;;;8.32;4.57;;;;;;;;;;5067878;28;20093;-85
2022/05/16 06:35:19;;;;;;;9.05;5.05;;;;;;;;;;4977350;28;20119;-79
2022/05/16 06:37:44;;;;;;;8.73;5.10;;;;;;;;;;5042496;28;20037;-82
2022/05/16 06:40:12;;;;;;;10.25;4.95;;;;;;;;;;5034076;28;20025;-80
2022/05/16 06:42:37;;;;;;;7.00;5.35;;;;;;;;;;5030661;28;20025;-82
2022/05/16 06:45:04;;;;;;;8.73;4.90;;;;;;;;;;5029513;28;20103;-83
2022/05/16 06:47:30;;;;;;;8.23;5.20;;;;;;;;;;5032031;28;20026;-82
2022/05/16 06:49:55;;;;;;;7.60;4.68;;;;;;;;;;5031439;28;20082;-81
2022/05/16 06:52:21;;;;;;;8.13;5.55;;;;;;;;;;5028907;28;20120;-81
2022/05/16 06:54:47;;;;;;;9.05;5.80;;;;;;;;;;5024441;28;20025;-82
2022/05/16 06:57:12;;;;;;;9.88;5.32;;;;;;;;;;5027950;28;20026;-83
2022/05/16 06:59:37;;;;;;;9.48;5.63;;;;;;;;;;5027607;28;20018;-80
2022/05/16 07:02:05;;;;;;;7.18;5.43;;;;;;;;;;5027623;28;20371;-79
2022/05/16 07:04:31;;;;;;;9.85;5.13;;;;;;;;;;5029128;28;20036;-79
2022/05/16 07:06:57;;;;;;;7.13;5.00;;;;;;;;;;5024396;28;20486;-83
2022/05/16 07:09:22;;;;;;;6.72;5.18;;;;;;;;;;5027062;28;20025;-83
2022/05/16 07:11:48;;;;;;;9.70;5.28;;;;;;;;;;5027963;28;20037;-83
2022/05/16 07:14:13;;;;;;;7.28;4.60;;;;;;;;;;5030449;28;20362;-80
2022/05/16 07:16:39;;;;;;;7.63;5.55;;;;;;;;;;5030055;28;20043;-83
2022/05/16 07:19:04;;;;;;;7.68;5.07;;;;;;;;;;5024515;28;20616;-80
2022/05/16 07:21:30;;;;;;;9.07;5.03;;;;;;;;;;5034363;28;20025;-83
2022/05/16 07:23:55;;;;;;;6.15;4.53;;;;;;;;;;5032347;28;20029;-82
2022/05/16 07:29:05;;;;;;;9.75;4.53;;;;;;;;;;5031608;28;20036;-79
2022/05/16 07:31:30;;;;;;;5.78;4.18;;;;;;;;;;5029263;28;20017;-81
2022/05/16 07:33:55;;;;;;;6.47;4.35;;;;;;;;;;5029752;28;20033;-83
2022/05/16 07:36:20;;;;;;;8.35;4.25;;;;;;;;;;5028542;28;20017;-81
2022/05/16 07:38:46;;;;;;;7.18;4.05;;;;;;;;;;5028839;28;20029;-80
2022/05/16 07:41:11;;;;;;;6.07;4.18;;;;;;;;;;5026682;28;20036;-80
2022/05/16 07:43:37;;;;;;;8.07;4.00;;;;;;;;;;5023748;28;20045;-83
2022/05/16 07:46:04;;;;;;;8.02;4.38;;;;;;;;;;5026480;28;20048;-84
2022/05/16 07:48:30;;;;;;;5.88;3.55;;;;;;;;;;5030799;28;20425;-81
2022/05/16 07:50:55;;;;;;;6.32;3.83;;;;;;;;;;5031139;28;20057;-83
2022/05/16 07:53:21;;;;;;;9.27;3.72;;;;;;;;;;5025235;28;20033;-83
2022/05/16 07:55:50;;;;;;;6.82;3.40;;;;;;;;;;5037938;28;20473;-81
2022/05/16 07:58:16;;;;;;;4.55;3.40;;;;;;;;;;5025587;28;20029;-82
2022/05/16 08:00:42;;;;;;;6.15;3.53;;;;;;;;;;5025031;28;20504;-81
2022/05/16 08:03:15;;;;;;;6.10;3.35;;;;;;;;;;5032083;28;20025;-83
2022/05/16 08:05:41;;;;;;;6.47;3.20;;;;;;;;;;5029524;28;20517;-81
2022/05/16 08:10:51;;;;;;;7.45;3.25;;;;;;;;;;5030837;28;20505;-81
2022/05/16 08:13:17;;;;;;;7.40;3.33;;;;;;;;;;5031374;28;20028;-82
2022/05/16 08:15:43;;;;;;;6.72;3.65;;;;;;;;;;5028154;28;20029;-85
2022/05/16 08:18:10;;;;;;;6.78;3.30;;;;;;;;;;5029653;28;20033;-85
2022/05/16 08:20:39;;;;;;;7.30;3.00;;;;;;;;;;5029031;28;20029;-81
2022/05/16 08:23:05;;;;;;;7.95;2.92;;;;;;;;;;5028117;28;20029;-84
2022/05/16 08:25:31;;;;;;;5.97;3.03;;;;;;;;;;5024040;28;20405;-85
2022/05/16 08:27:56;;;;;;;5.97;3.25;;;;;;;;;;5038007;28;20017;-85
2022/05/16 08:30:23;;;;;;;8.88;3.15;;;;;;;;;;5026527;28;20021;-85
2022/05/16 08:32:49;;;;;;;6.40;3.40;;;;;;;;;;5028093;28;20025;-81
2022/05/16 08:35:16;;;;;;;5.65;3.05;;;;;;;;;;5030464;28;20041;-86
2022/05/16 08:40:54;;;;;;;7.60;3.45;;;;;;;;;;5022200;28;20048;-83
2022/05/16 08:43:30;;;;;;;6.80;3.90;;;;;;;;;;5029309;28;20477;-85
2022/05/16 08:46:11;;;;;;;6.22;3.25;;;;;;;;;;5027595;28;20049;-84
2022/05/16 08:48:43;;;;;;;7.05;3.80;;;;;;;;;;5027147;28;21194;-82
2022/05/16 08:51:18;;;;;;;5.80;3.42;;;;;;;;;;5026723;28;20068;-81
2022/05/16 08:53:49;;;;;;;4.93;3.58;;;;;;;;;;5029773;28;20397;-86
2022/05/16 08:56:23;;;;;;;6.72;3.13;;;;;;;;;;5026138;28;20481;-85
2022/05/16 08:58:57;;;;;;;6.90;3.22;;;;;;;;;;5032100;28;20029;-84
2022/05/16 09:01:37;;;;;;;6.32;3.08;;;;;;;;;;5026371;28;20025;-86
2022/05/16 09:04:09;;;;;;;6.70;3.65;;;;;;;;;;5031554;28;20449;-80
2022/05/16 09:06:42;;;;;;;7.43;2.87;;;;;;;;;;5043269;28;20478;-80
2022/05/16 09:09:20;;;;;;;6.40;3.15;;;;;;;;;;5027747;28;22235;-81
2022/05/16 09:12:19;;;;;;;6.28;3.20;;;;;;;;;;5024419;28;20036;-82
2022/05/16 09:15:23;;;;;;;4.85;3.00;;;;;;;;;;5042728;28;20056;-84
2022/05/16 09:18:07;;;;;;;5.95;3.20;;;;;;;;;;5027991;28;20085;-81
2022/05/16 09:21:18;;;;;;;5.45;2.92;;;;;;;;;;5025322;28;20487;-82
2022/05/16 09:24:11;;;;;;;5.10;2.78;;;;;;;;;;4997503;28;20042;-82
2022/05/16 09:26:49;;;;;;;6.55;3.28;;;;;;;;;;5025562;28;20416;-83
2022/05/16 09:29:26;;;;;;;7.93;3.50;;;;;;;;;;5027669;28;20072;-82
2022/05/16 09:31:56;;;;;;;6.00;3.42;;;;;;;;;;5028519;28;20505;-83
2022/05/16 09:34:21;;;;;;;7.60;3.58;;;;;;;;;;5028930;28;20112;-83
2022/05/16 09:36:49;;;;;;;5.50;2.72;;;;;;;;;;5026171;28;20128;-80
2022/05/16 09:39:24;;;;;;;5.20;2.92;;;;;;;;;;5031045;28;20398;-81
2022/05/16 09:41:59;;;;;;;5.85;2.80;;;;;;;;;;5033688;28;20029;-82
2022/05/16 09:44:46;;;;;;;5.60;3.20;;;;;;;;;;5033469;28;20045;-87
2022/05/16 09:47:32;;;;;;;3.75;2.45;;;;;;;;;;5031789;28;20036;-81
2022/05/16 09:50:32;;;;;;;6.20;2.90;;;;;;;;;;5033695;28;20032;-81
2022/05/16 09:53:17;;;;;;;7.68;2.58;;;;;;;;;;5028633;28;20512;-84
2022/05/16 09:55:55;;;;;;;5.60;2.58;;;;;;;;;;5037829;28;20036;-81
2022/05/16 09:58:25;;;;;;;5.50;2.45;;;;;;;;;;5032426;28;20115;-87
2022/05/16 10:00:57;;;;;;;6.50;2.88;;;;;;;;;;5031361;28;20063;-82
2022/05/16 10:03:30;;;;;;;7.72;2.88;;;;;;;;;;5025044;28;21317;-83
2022/05/16 10:05:57;;;;;;;5.05;2.65;;;;;;;;;;5029686;28;20037;-84
2022/05/16 10:08:38;;;;;;;4.97;2.70;;;;;;;;;;5031973;28;20071;-81
2022/05/16 10:11:12;;;;;;;6.25;2.95;;;;;;;;;;5033165;28;20120;-83
2022/05/16 10:13:38;;;;;;;5.15;2.63;;;;;;;;;;5045905;28;20029;-84
2022/05/16 10:16:07;;;;;;;4.00;2.50;;;;;;;;;;5030835;28;20029;-86
2022/05/16 10:18:47;;;;;;;3.83;2.45;;;;;;;;;;5029766;28;20393;-81
2022/05/16 10:21:26;;;;;;;6.65;2.50;;;;;;;;;;5031829;28;20032;-84
2022/05/16 10:23:52;;;;;;;3.70;2.35;;;;;;;;;;5027354;28;20116;-86
2022/05/16 10:26:27;;;;;;;4.43;2.72;;;;;;;;;;5025639;28;20029;-83
2022/05/16 10:29:03;;;;;;;4.93;2.42;;;;;;;;;;5031097;28;20033;-82
2022/05/16 10:34:35;;;;;;;4.35;1.85;;;;;;;;;;5024923;28;20389;-83
2022/05/16 10:37:02;;;;;;;4.85;2.03;;;;;;;;;;5043785;28;20458;-83
2022/05/16 10:39:29;;;;;;;3.85;1.63;;;;;;;;;;5043199;28;20494;-83
2022/05/16 10:42:10;;;;;;;4.07;1.75;;;;;;;;;;5032155;28;20029;-83
2022/05/16 10:44:44;;;;;;;6.03;2.00;;;;;;;;;;5029686;28;20132;-87
2022/05/16 10:47:48;;;;;;;3.80;1.80;;;;;;;;;;5028619;28;20121;-81
2022/05/16 10:50:26;;;;;;;5.28;2.20;;;;;;;;;;5030678;28;20022;-82
2022/05/16 10:53:10;;;;;;;4.95;2.78;;;;;;;;;;5029942;28;20423;-86
2022/05/16 10:55:49;;;;;;;4.65;2.20;;;;;;;;;;5034433;28;20538;-83
2022/05/16 10:58:30;;;;;;;5.53;2.55;;;;;;;;;;5032432;28;20025;-82
2022/05/16 11:01:11;;;;;;;5.90;2.47;;;;;;;;;;5033911;28;20477;-83
2022/05/16 11:04:18;;;;;;;5.95;2.50;;;;;;;;;;5027803;28;20047;-82
2022/05/16 11:07:11;;;;;;;4.05;2.42;;;;;;;;;;4960878;28;20137;-87
2022/05/16 11:09:41;;;;;;;5.03;2.13;;;;;;;;;;5027505;28;20493;-80
2022/05/16 11:12:22;;;;;;;4.68;2.40;;;;;;;;;;5031494;28;20039;-80
2022/05/16 11:15:04;;;;;;;5.60;2.80;;;;;;;;;;5024132;28;20939;-81
2022/05/16 11:17:47;;;;;;;5.35;2.90;;;;;;;;;;5046895;28;20112;-79
2022/05/16 11:20:22;;;;;;;5.65;3.25;;;;;;;;;;5028085;28;20041;-81
2022/05/16 11:22:56;;;;;;;5.05;2.80;;;;;;;;;;5027545;28;20108;-80
2022/05/16 11:25:45;;;;;;;6.78;3.10;;;;;;;;;;5023757;28;20029;-80
2022/05/16 11:28:19;;;;;;;9.82;4.25;;;;;;;;;;5042913;28;20047;-81
2022/05/16 11:30:47;;;;;;;7.43;4.28;;;;;;;;;;5027033;28;20033;-80
2022/05/16 11:33:48;;;;;;;8.35;4.57;;;;;;;;;;5030097;28;20074;-81
2022/05/16 11:36:23;;;;;;;8.60;4.53;;;;;;;;;;5028571;28;20025;-80
2022/05/16 11:39:07;;;;;;;7.15;4.65;;;;;;;;;;5024557;28;20068;-80
2022/05/16 11:41:41;;;;;;;6.80;4.85;;;;;;;;;;5027845;28;20025;-81
2022/05/16 11:45:11;;;;;;;8.98;5.63;;;;;;;;;;5045855;28;20041;-81
2022/05/16 11:47:47;;;;;;;5.68;4.07;;;;;;;;;;4973719;28;20069;-79
2022/05/16 11:50:27;;;;;;;7.20;4.68;;;;;;;;;;4971433;28;20084;-82
2022/05/16 11:53:05;;;;;;;7.30;4.25;;;;;;;;;;5010622;28;20030;-81
2022/05/16 12:01:28;;;;;;;5.32;3.58;;;;;;;;;;5021335;28;20119;-81
2022/05/16 12:04:22;;;;;;;9.82;4.40;;;;;;;;;;5022470;28;20567;-80
2022/05/16 12:06:50;;;;;;;7.30;4.00;;;;;;;;;;5021623;28;20038;-81
2022/05/16 12:09:23;;;;;;;7.45;4.50;;;;;;;;;;5023738;28;20036;-81
2022/05/16 12:12:01;;;;;;;6.28;4.88;;;;;;;;;;5036109;28;20111;-81
2022/05/16 12:14:34;;;;;;;8.77;5.20;;;;;;;;;;5033891;28;20552;-79
2022/05/16 12:17:34;;;;;;;8.38;5.13;;;;;;;;;;5023346;28;20578;-80
2022/05/16 12:19:59;;;;;;;8.45;5.38;;;;;;;;;;4979719;28;20048;-80
2022/05/16 12:22:36;;;;;;;10.48;7.53;;;;;;;;;;5036186;28;20029;-80
2022/05/16 12:25:09;;;;;;;10.18;7.15;;;;;;;;;;5024046;28;20033;-80
2022/05/16 12:27:41;;;;;;;11.15;7.78;;;;;;;;;;5025528;28;20061;-80
2022/05/16 12:30:20;;;;;;;12.30;9.60;;;;;;;;;;5022517;28;20040;-81
2022/05/16 12:32:53;;;;;;;13.40;10.93;;;;;;;;;;5021031;28;20041;-80
2022/05/16 12:35:38;;;;;;;14.07;10.73;;;;;;;;;;5023379;28;20029;-81
2022/05/16 12:38:11;;;;;;;14.20;10.30;;;;;;;;;;5024771;28;20021;-80
2022/05/16 12:40:43;;;;;;;13.93;10.27;;;;;;;;;;5019930;28;20037;-80
2022/05/16 12:43:23;;;;;;;12.07;9.82;;;;;;;;;;5022627;28;20040;-81
2022/05/16 12:46:19;;;;;;;14.60;9.63;;;;;;;;;;5022944;28;20045;-80
2022/05/16 12:49:08;;;;;;;8.82;7.72;;;;;;;;;;5019362;28;20041;-81
2022/05/16 12:51:56;;;;;;;9.73;7.50;;;;;;;;;;5037335;28;20144;-81
2022/05/16 12:54:34;;;;;;;9.55;7.18;;;;;;;;;;5021794;28;20036;-82
2022/05/16 12:57:22;;;;;;;9.23;7.40;;;;;;;;;;5022224;28;20759;-81
2022/05/16 13:00:20;;;;;;;12.90;7.47;;;;;;;;;;5021892;28;20064;-84
2022/05/16 13:02:55;;;;;;;11.10;7.68;;;;;;;;;;5001935;28;20041;-84
2022/05/16 13:05:54;;;;;;;11.50;7.68;;;;;;;;;;5032343;28;21226;-83
2022/05/16 13:08:31;;;;;;;10.88;8.02;;;;;;;;;;5019452;28;20116;-82
2022/05/16 13:11:25;;;;;;;13.50;8.32;;;;;;;;;;5014257;28;20029;-82
2022/05/16 13:14:17;;;;;;;14.48;9.18;;;;;;;;;;5020839;28;20493;-82
2022/05/16 13:16:57;;;;;;;16.70;9.18;;;;;;;;;;5026538;28;20025;-81
2022/05/16 13:19:31;;;;;;;14.32;9.38;;;;;;;;;;5022445;28;20443;-83
2022/05/16 13:22:17;;;;;;;12.35;9.63;;;;;;;;;;5027006;28;20084;-82
2022/05/16 13:24:43;;;;;;;15.23;10.10;;;;;;;;;;5028141;28;20769;-83
2022/05/16 13:30:03;;;;;;;13.75;10.18;;;;;;;;;;5029422;28;20102;-81
2022/05/16 13:32:30;;;;;;;15.77;10.73;;;;;;;;;;5027196;28;20136;-82
2022/05/16 13:35:00;;;;;;;14.63;10.88;;;;;;;;;;5025513;28;20026;-82
2022/05/16 13:37:38;;;;;;;16.48;12.10;;;;;;;;;;5019447;28;20124;-82
2022/05/16 13:40:06;;;;;;;16.15;11.15;;;;;;;;;;5027618;28;20107;-81
2022/05/16 13:42:34;;;;;;;14.90;11.68;;;;;;;;;;5023047;28;20030;-82
2022/05/16 13:45:01;;;;;;;18.10;12.68;;;;;;;;;;5024639;28;20086;-82
2022/05/16 13:47:31;;;;;;;16.45;12.43;;;;;;;;;;5021057;28;20041;-84
2022/05/16 13:49:56;;;;;;;18.50;15.25;;;;;;;;;;5019954;28;20037;-81
2022/05/16 13:52:31;;;;;;;19.10;14.55;;;;;;;;;;5029423;28;20415;-83
2022/05/16 13:54:59;;;;;;;21.45;16.10;;;;;;;;;;5013211;28;20426;-82
2022/05/16 13:57:27;;;;;;;21.48;14.55;;;;;;;;;;5014325;28;20029;-81
2022/05/16 14:00:12;;;;;;;20.10;14.68;;;;;;;;;;5016832;28;20025;-81
2022/05/16 14:02:39;;;;;;;20.42;15.15;;;;;;;;;;5014113;28;20034;-82
2022/05/16 14:05:24;;;;;;;19.08;14.23;;;;;;;;;;5018598;28;20500;-81
2022/05/16 14:07:50;;;;;;;18.95;13.45;;;;;;;;;;5019178;28;20048;-83
2022/05/16 14:10:17;;;;;;;19.90;13.45;;;;;;;;;;5019093;28;20556;-81
2022/05/16 14:12:46;;;;;;;17.30;12.65;;;;;;;;;;5014957;28;20030;-82
2022/05/16 14:15:39;;;;;;;14.75;11.60;;;;;;;;;;5018606;28;20037;-82
2022/05/16 14:18:13;;;;;;;17.08;11.18;;;;;;;;;;5016303;28;20037;-83
2022/05/16 14:20:45;;;;;;;16.73;11.57;;;;;;;;;;5019016;28;20526;-81
2022/05/16 14:23:31;;;;;;;14.98;10.95;;;;;;;;;;5018172;28;20029;-81
2022/05/16 14:26:19;;;;;;;16.23;11.30;;;;;;;;;;5016963;28;20092;-82
2022/05/16 14:28:48;;;;;;;17.05;10.68;;;;;;;;;;5024718;28;20124;-82
2022/05/16 14:31:18;;;;;;;14.82;11.07;;;;;;;;;;5017078;28;20022;-81
2022/05/16 14:33:58;;;;;;;16.83;10.18;;;;;;;;;;5025020;28;20043;-83
2022/05/16 14:36:45;;;;;;;15.32;11.43;;;;;;;;;;5020983;28;20029;-82
2022/05/16 14:39:25;;;;;;;15.82;10.65;;;;;;;;;;5015852;28;20030;-81
2022/05/16 14:42:07;;;;;;;16.10;12.48;;;;;;;;;;5021555;28;20080;-80
2022/05/16 14:44:35;;;;;;;16.02;12.05;;;;;;;;;;5036134;28;20041;-82
2022/05/16 14:47:25;;;;;;;15.60;11.15;;;;;;;;;;5032189;28;20033;-81
2022/05/16 14:49:51;;;;;;;13.45;9.68;;;;;;;;;;5022627;28;20084;-84
2022/05/16 14:52:25;;;;;;;14.57;7.03;;;;;;;;;;5020450;28;20029;-84
2022/05/16 14:55:13;;;;;;;12.27;6.72;;;;;;;;;;5016245;28;20072;-81
2022/05/16 14:57:43;;;;;;;11.05;5.68;;;;;;;;;;5020347;28;20030;-83
2022/05/16 15:05:45;;;;;;;12.60;5.03;;;;;;;;;;5036283;28;20049;-81
2022/05/16 15:08:16;;;;;;;11.35;4.68;;;;;;;;;;5022778;28;20033;-84
2022/05/16 15:10:41;;;;;;;9.43;4.15;;;;;;;;;;5026566;28;20037;-81
2022/05/16 15:13:07;;;;;;;9.02;4.30;;;;;;;;;;5019919;28;20037;-82
2022/05/16 15:15:32;;;;;;;8.00;4.00;;;;;;;;;;5025218;28;20040;-83
2022/05/16 15:17:57;;;;;;;7.57;3.83;;;;;;;;;;5016524;28;20365;-85
2022/05/16 15:20:22;;;;;;;8.30;3.60;;;;;;;;;;5026372;28;20481;-80
2022/05/16 15:22:48;;;;;;;6.35;3.22;;;;;;;;;;5031189;28;20025;-80
2022/05/16 15:25:13;;;;;;;7.25;3.53;;;;;;;;;;5029861;28;20025;-85
2022/05/16 15:27:42;;;;;;;7.10;3.60;;;;;;;;;;5025904;28;20017;-80
2022/05/16 15:30:09;;;;;;;8.43;3.28;;;;;;;;;;5025816;28;20032;-82
2022/05/16 15:32:35;;;;;;;8.00;2.95;;;;;;;;;;5039671;28;20500;-81
2022/05/16 15:35:00;;;;;;;6.00;2.88;;;;;;;;;;5030179;28;20033;-85
2022/05/16 15:37:26;;;;;;;6.70;2.47;;;;;;;;;;5030686;28;20025;-85
2022/05/16 15:39:54;;;;;;;6.68;2.85;;;;;;;;;;5031581;28;20065;-85